createdAt,value
2023-01-19T00:01:12.142Z,8.52
2023-01-19T00:03:40.045Z,8.18
2023-01-19T00:06:08.136Z,7.75
2023-01-19T00:08:36.480Z,7.70
2023-01-19T00:11:04.633Z,7.40
2023-01-19T00:13:34.976Z,6.40
2023-01-19T00:16:04.068Z,6.22
2023-01-19T00:18:31.837Z,6.07
2023-01-19T00:20:59.546Z,5.72
2023-01-19T00:23:27.343Z,6.53
2023-01-19T00:25:55.044Z,5.75
2023-01-19T00:28:22.758Z,5.22
2023-01-19T00:30:51.916Z,5.53
2023-01-19T00:33:20.956Z,6.20
2023-01-19T00:35:52.932Z,5.35
2023-01-19T00:38:20.595Z,5.47
2023-01-19T00:40:48.432Z,4.55
2023-01-19T00:43:16.155Z,4.72
2023-01-19T00:45:43.935Z,5.38
2023-01-19T00:48:11.676Z,4.93
2023-01-19T00:50:40.788Z,4.95
2023-01-19T00:53:08.489Z,5.60
2023-01-19T00:55:36.173Z,5.30
2023-01-19T00:58:07.104Z,5.03
2023-01-19T01:00:37.197Z,4.07
2023-01-19T01:03:06.173Z,3.70
2023-01-19T01:05:33.842Z,3.88
2023-01-19T01:08:02.882Z,3.80
2023-01-19T01:10:30.847Z,4.72
2023-01-19T01:12:59.360Z,3.90
2023-01-19T01:15:46.177Z,3.97
2023-01-19T01:18:16.276Z,4.50
2023-01-19T01:20:44.011Z,3.60
2023-01-19T01:23:13.368Z,5.00
2023-01-19T01:25:42.505Z,3.90
2023-01-19T01:28:11.352Z,3.83
2023-01-19T01:30:40.866Z,3.85
2023-01-19T01:33:09.018Z,4.22
2023-01-19T01:35:39.613Z,4.05
2023-01-19T01:38:07.539Z,4.20
2023-01-19T01:40:40.290Z,3.35
2023-01-19T01:43:12.210Z,3.55
2023-01-19T01:45:41.944Z,3.83
2023-01-19T01:48:13.756Z,3.88
2023-01-19T01:51:07.571Z,3.10
2023-01-19T01:53:38.466Z,2.85
2023-01-19T01:56:12.936Z,3.63
2023-01-19T01:58:41.730Z,3.35
2023-01-19T02:01:23.867Z,3.53
2023-01-19T02:03:52.107Z,4.68
2023-01-19T02:06:21.552Z,3.10
2023-01-19T02:09:08.670Z,3.50
2023-01-19T02:11:54.461Z,3.60
2023-01-19T02:14:22.771Z,3.30
2023-01-19T02:16:50.613Z,3.90
2023-01-19T02:19:24.564Z,3.25
2023-01-19T02:21:57.552Z,3.92
2023-01-19T02:24:27.391Z,3.20
2023-01-19T02:26:56.366Z,2.95
2023-01-19T02:29:27.221Z,3.00
2023-01-19T02:31:56.090Z,3.08
2023-01-19T02:34:23.912Z,3.97
2023-01-19T02:36:55.793Z,3.15
2023-01-19T02:39:29.878Z,2.58
2023-01-19T02:42:02.648Z,3.13
2023-01-19T02:44:31.409Z,3.78
2023-01-19T02:46:59.214Z,4.35
2023-01-19T02:49:29.676Z,3.22
2023-01-19T02:51:57.912Z,4.18
2023-01-19T02:54:40.060Z,3.60
2023-01-19T02:57:27.182Z,3.78
2023-01-19T03:00:07.841Z,3.63
2023-01-19T03:02:46.223Z,4.25
2023-01-19T03:05:27.318Z,4.20
2023-01-19T03:08:05.690Z,3.30
2023-01-19T03:10:43.405Z,3.33
2023-01-19T03:13:18.500Z,3.38
2023-01-19T03:15:50.274Z,3.95
2023-01-19T03:18:21.583Z,3.85
2023-01-19T03:20:53.433Z,3.70
2023-01-19T03:23:23.371Z,3.70
2023-01-19T03:25:54.607Z,4.88
2023-01-19T03:28:25.958Z,4.20
2023-01-19T03:30:59.611Z,3.70
2023-01-19T03:33:32.239Z,4.10
2023-01-19T03:36:05.382Z,3.38
2023-01-19T03:38:37.951Z,3.53
2023-01-19T03:41:12.362Z,3.83
2023-01-19T03:43:41.939Z,3.03
2023-01-19T03:46:11.534Z,3.05
2023-01-19T03:48:39.631Z,3.60
2023-01-19T03:51:09.237Z,4.55
2023-01-19T03:53:38.447Z,2.80
2023-01-19T03:56:09.740Z,3.70
2023-01-19T03:58:37.449Z,3.10
2023-01-19T04:01:05.195Z,3.42
2023-01-19T04:03:33.450Z,3.40
2023-01-19T04:06:01.264Z,3.20
2023-01-19T04:08:29.051Z,3.78
2023-01-19T04:10:59.003Z,3.60
2023-01-19T04:13:29.937Z,2.70
2023-01-19T04:16:01.114Z,3.08
2023-01-19T04:18:29.165Z,3.90
2023-01-19T04:20:56.990Z,3.28
2023-01-19T04:23:25.016Z,2.92
2023-01-19T04:25:58.247Z,3.67
2023-01-19T04:28:26.117Z,3.90
2023-01-19T04:30:55.271Z,3.72
2023-01-19T04:33:23.531Z,4.00
2023-01-19T04:35:54.397Z,2.88
2023-01-19T04:38:22.915Z,3.03
2023-01-19T04:40:52.527Z,3.38
2023-01-19T04:43:20.708Z,3.67
2023-01-19T04:45:48.991Z,2.97
2023-01-19T04:48:19.036Z,4.30
2023-01-19T04:50:47.209Z,3.03
2023-01-19T04:53:16.430Z,3.50
2023-01-19T04:55:44.116Z,3.60
2023-01-19T04:58:11.815Z,3.25
2023-01-19T05:00:39.542Z,3.65
2023-01-19T05:03:09.705Z,3.33
2023-01-19T05:05:38.744Z,3.72
2023-01-19T05:08:06.782Z,3.15
2023-01-19T05:10:34.496Z,2.95
2023-01-19T05:13:05.592Z,3.92
2023-01-19T05:15:35.761Z,3.50
2023-01-19T05:18:04.066Z,3.65
2023-01-19T05:20:31.786Z,3.15
2023-01-19T05:23:01.160Z,4.00
2023-01-19T05:25:29.021Z,3.90
2023-01-19T05:27:56.714Z,3.15
2023-01-19T05:30:24.796Z,2.95
2023-01-19T05:32:52.480Z,3.40
2023-01-19T05:35:31.302Z,3.70
2023-01-19T05:38:04.284Z,3.20
2023-01-19T05:40:32.014Z,3.30
2023-01-19T05:43:00.860Z,3.35
2023-01-19T05:45:31.354Z,3.00
2023-01-19T05:47:59.073Z,4.10
2023-01-19T05:50:27.012Z,3.78
2023-01-19T05:52:54.671Z,3.10
2023-01-19T05:55:24.148Z,3.83
2023-01-19T05:57:51.818Z,2.75
2023-01-19T06:00:20.920Z,3.60
2023-01-19T06:02:49.182Z,3.10
2023-01-19T06:05:17.167Z,3.30
2023-01-19T06:07:44.913Z,3.15
2023-01-19T06:10:13.119Z,3.22
2023-01-19T06:12:42.251Z,3.05
2023-01-19T06:15:10.406Z,3.80
2023-01-19T06:17:38.105Z,3.72
2023-01-19T06:20:06.930Z,3.30
2023-01-19T06:22:37.904Z,2.95
2023-01-19T06:25:06.016Z,3.55
2023-01-19T06:27:33.675Z,3.10
2023-01-19T06:30:04.779Z,3.40
2023-01-19T06:32:32.977Z,3.28
2023-01-19T06:35:00.723Z,3.20
2023-01-19T06:37:30.446Z,3.70
2023-01-19T06:39:58.720Z,2.70
2023-01-19T06:42:26.496Z,3.83
2023-01-19T06:44:54.211Z,3.40
2023-01-19T06:47:23.183Z,3.05
2023-01-19T06:49:50.974Z,3.50
2023-01-19T06:52:19.875Z,5.10
2023-01-19T06:54:47.709Z,4.47
2023-01-19T06:57:18.720Z,6.35
2023-01-19T06:59:46.554Z,5.50
2023-01-19T07:02:26.947Z,6.68
2023-01-19T07:04:57.506Z,4.43
2023-01-19T07:07:25.775Z,4.50
2023-01-19T07:09:54.340Z,4.63
2023-01-19T07:12:22.340Z,4.03
2023-01-19T07:14:50.305Z,3.15
2023-01-19T07:17:18.201Z,3.08
2023-01-19T07:19:46.481Z,3.28
2023-01-19T07:22:15.504Z,3.38
2023-01-19T07:24:44.178Z,3.50
2023-01-19T07:27:12.329Z,3.35
2023-01-19T07:29:40.047Z,2.08
2023-01-19T07:32:07.982Z,3.25
2023-01-19T07:34:36.344Z,3.20
2023-01-19T07:37:04.621Z,2.55
2023-01-19T07:39:38.821Z,3.08
2023-01-19T07:42:07.659Z,3.05
2023-01-19T07:44:37.528Z,2.80
2023-01-19T07:47:07.459Z,4.05
2023-01-19T07:49:36.271Z,3.10
2023-01-19T07:52:04.165Z,4.47
2023-01-19T07:54:33.191Z,3.08
2023-01-19T07:57:02.748Z,3.83
2023-01-19T07:59:36.692Z,2.70
2023-01-19T08:02:04.530Z,4.40
2023-01-19T08:04:32.375Z,3.70
2023-01-19T08:07:00.107Z,2.88
2023-01-19T08:09:27.819Z,3.25
2023-01-19T08:11:57.040Z,3.70
2023-01-19T08:14:24.800Z,3.53
2023-01-19T08:16:52.501Z,3.58
2023-01-19T08:19:20.378Z,2.83
2023-01-19T08:21:48.096Z,3.25
2023-01-19T08:24:21.251Z,2.90
2023-01-19T08:26:49.469Z,4.38
2023-01-19T08:29:18.478Z,3.53
2023-01-19T08:31:46.562Z,3.45
2023-01-19T08:34:14.360Z,3.70
2023-01-19T08:36:42.043Z,2.72
2023-01-19T08:39:12.060Z,2.85
2023-01-19T08:41:39.773Z,3.30
2023-01-19T08:44:07.535Z,3.08
2023-01-19T08:46:36.664Z,3.58
2023-01-19T08:49:04.404Z,3.50
2023-01-19T08:51:32.852Z,3.65
2023-01-19T08:54:00.584Z,3.08
2023-01-19T08:56:28.520Z,3.67
2023-01-19T08:59:08.233Z,3.45
2023-01-19T09:01:38.999Z,3.20
2023-01-19T09:04:07.104Z,2.70
2023-01-19T09:06:34.884Z,3.30
2023-01-19T09:09:02.874Z,3.13
2023-01-19T09:11:30.744Z,3.65
2023-01-19T09:13:58.501Z,2.88
2023-01-19T09:16:26.989Z,3.35
2023-01-19T09:18:56.110Z,3.15
2023-01-19T09:21:23.867Z,3.70
2023-01-19T09:23:51.561Z,3.03
2023-01-19T09:26:19.257Z,3.33
2023-01-19T09:28:46.931Z,2.92
2023-01-19T09:31:15.428Z,2.65
2023-01-19T09:33:43.271Z,2.70
2023-01-19T09:36:12.284Z,3.17
2023-01-19T09:38:39.963Z,2.75
2023-01-19T09:41:19.828Z,2.80
2023-01-19T09:43:54.293Z,3.10
2023-01-19T09:46:31.118Z,3.25
2023-01-19T09:49:01.392Z,2.78
2023-01-19T09:51:34.719Z,3.40
2023-01-19T09:54:10.184Z,2.45
2023-01-19T09:56:38.611Z,2.95
2023-01-19T09:59:19.647Z,3.38
2023-01-19T10:02:06.789Z,3.00
2023-01-19T10:04:40.441Z,5.47
2023-01-19T10:07:16.886Z,3.47
2023-01-19T10:09:56.232Z,2.58
2023-01-19T10:12:36.787Z,2.42
2023-01-19T10:15:15.549Z,2.53
2023-01-19T10:17:50.315Z,3.05
2023-01-19T10:20:26.005Z,2.80
2023-01-19T10:22:57.737Z,3.17
2023-01-19T10:25:25.955Z,2.70
2023-01-19T10:27:53.703Z,2.78
2023-01-19T10:30:25.459Z,3.10
2023-01-19T10:32:53.435Z,3.50
2023-01-19T10:35:24.503Z,2.70
2023-01-19T10:37:54.530Z,3.00
2023-01-19T10:40:30.749Z,2.67
2023-01-19T10:42:59.489Z,2.75
2023-01-19T10:45:32.550Z,2.47
2023-01-19T10:48:07.081Z,3.83
2023-01-19T10:50:37.399Z,3.10
2023-01-19T10:53:06.386Z,2.30
2023-01-19T10:55:38.240Z,2.47
2023-01-19T10:58:07.140Z,3.00
2023-01-19T11:00:38.292Z,2.38
2023-01-19T11:03:22.847Z,2.65
2023-01-19T11:05:51.155Z,2.15
2023-01-19T11:08:24.677Z,3.00
2023-01-19T11:11:02.326Z,2.90
2023-01-19T11:13:30.289Z,2.70
2023-01-19T11:16:04.439Z,2.40
2023-01-19T11:18:35.611Z,2.85
2023-01-19T11:21:08.754Z,3.22
2023-01-19T11:23:42.820Z,2.88
2023-01-19T11:26:16.805Z,2.85
2023-01-19T11:28:51.165Z,3.10
2023-01-19T11:31:20.880Z,2.75
2023-01-19T11:33:52.535Z,2.60
2023-01-19T11:36:22.897Z,2.88
2023-01-19T11:38:52.223Z,3.35
2023-01-19T11:41:27.803Z,3.72
2023-01-19T11:43:58.625Z,3.47
2023-01-19T11:46:33.744Z,3.92
2023-01-19T11:49:05.568Z,5.22
2023-01-19T11:51:41.179Z,4.32
2023-01-19T11:54:18.674Z,4.55
2023-01-19T11:56:49.246Z,4.03
2023-01-19T11:59:17.052Z,4.80
2023-01-19T12:01:50.252Z,4.55
2023-01-19T12:04:29.659Z,4.40
2023-01-19T12:06:59.346Z,5.70
2023-01-19T12:09:31.825Z,5.80
2023-01-19T12:12:04.092Z,4.85
2023-01-19T12:14:40.175Z,4.53
2023-01-19T12:17:14.923Z,5.85
2023-01-19T12:19:50.442Z,4.40
2023-01-19T12:22:22.108Z,4.40
2023-01-19T12:24:55.943Z,4.32
2023-01-19T12:27:39.999Z,4.35
2023-01-19T12:30:18.306Z,4.25
2023-01-19T12:32:48.151Z,5.32
2023-01-19T12:35:45.627Z,5.88
2023-01-19T12:38:33.462Z,4.05
2023-01-19T12:41:26.362Z,4.20
2023-01-19T12:44:18.995Z,4.90
2023-01-19T12:46:49.222Z,5.22
2023-01-19T12:49:25.045Z,5.13
2023-01-19T12:51:56.039Z,4.85
2023-01-19T12:54:31.433Z,4.85
2023-01-19T12:57:02.825Z,5.57
2023-01-19T12:59:34.510Z,5.80
2023-01-19T13:02:33.547Z,5.40
2023-01-19T13:05:18.737Z,6.82
2023-01-19T13:08:16.580Z,6.68
2023-01-19T13:11:14.281Z,6.97
2023-01-19T13:13:44.399Z,6.50
2023-01-19T13:16:44.288Z,6.10
2023-01-19T13:19:17.922Z,6.55
2023-01-19T13:21:47.718Z,4.90
2023-01-19T13:24:17.496Z,6.05
2023-01-19T13:26:55.377Z,6.78
2023-01-19T13:29:29.843Z,6.25
2023-01-19T13:32:02.544Z,6.82
2023-01-19T13:34:37.200Z,6.53
2023-01-19T13:37:06.071Z,6.80
2023-01-19T13:39:38.031Z,5.97
2023-01-19T13:42:08.988Z,7.63
2023-01-19T13:44:41.555Z,6.93
2023-01-19T13:47:13.240Z,7.68
2023-01-19T13:49:45.764Z,7.40
2023-01-19T13:52:16.785Z,7.13
2023-01-19T13:54:49.873Z,7.60
2023-01-19T13:57:26.577Z,6.80
2023-01-19T14:00:16.855Z,6.32
2023-01-19T14:02:55.685Z,7.22
2023-01-19T14:05:29.036Z,6.57
2023-01-19T14:08:06.983Z,8.30
2023-01-19T14:10:36.073Z,9.25
2023-01-19T14:13:04.959Z,9.25
2023-01-19T14:15:34.798Z,9.73
2023-01-19T14:18:12.438Z,7.03
2023-01-19T14:20:54.004Z,9.23
2023-01-19T14:23:38.187Z,6.90
2023-01-19T14:26:06.668Z,7.65
2023-01-19T14:28:39.234Z,6.00
2023-01-19T14:31:21.402Z,6.38
2023-01-19T14:33:50.483Z,6.13
2023-01-19T14:36:36.107Z,6.25
2023-01-19T14:39:04.720Z,5.00
2023-01-19T14:41:39.577Z,7.43
2023-01-19T14:44:13.150Z,6.55
2023-01-19T14:46:47.725Z,5.93
2023-01-19T14:49:27.284Z,7.53
2023-01-19T14:51:56.853Z,6.72
2023-01-19T14:54:31.547Z,6.45
2023-01-19T14:56:59.297Z,6.75
2023-01-19T14:59:27.026Z,7.20
2023-01-19T15:01:54.830Z,6.90
2023-01-19T15:04:23.102Z,5.40
2023-01-19T15:06:50.900Z,6.20
2023-01-19T15:09:20.019Z,5.80
2023-01-19T15:11:50.383Z,5.60
2023-01-19T15:14:19.652Z,5.78
2023-01-19T15:16:47.860Z,5.75
2023-01-19T15:19:17.495Z,5.60
2023-01-19T15:21:47.028Z,5.32
2023-01-19T15:24:17.936Z,6.05
2023-01-19T15:26:47.309Z,5.15
2023-01-19T15:29:20.914Z,5.95
2023-01-19T15:31:48.830Z,6.80
2023-01-19T15:34:16.531Z,7.63
2023-01-19T15:36:45.953Z,8.98
2023-01-19T15:39:13.701Z,9.07
2023-01-19T15:41:41.745Z,6.35
2023-01-19T15:44:11.755Z,6.65
2023-01-19T15:46:39.741Z,6.93
2023-01-19T15:49:07.645Z,7.10
2023-01-19T15:51:35.418Z,6.40
2023-01-19T15:54:03.164Z,5.70
2023-01-19T15:56:32.152Z,7.00
2023-01-19T15:59:00.051Z,7.60
2023-01-19T16:01:31.963Z,7.82
2023-01-19T16:04:01.405Z,7.97
2023-01-19T16:06:30.607Z,7.75
2023-01-19T16:09:03.452Z,7.82
2023-01-19T16:11:33.406Z,6.85
2023-01-19T16:14:01.274Z,6.75
2023-01-19T16:16:30.484Z,6.13
2023-01-19T16:18:58.920Z,6.22
2023-01-19T16:21:26.684Z,5.97
2023-01-19T16:23:55.194Z,6.47
2023-01-19T16:26:28.212Z,5.57
2023-01-19T16:29:00.971Z,6.90
2023-01-19T16:31:31.764Z,6.15
2023-01-19T16:33:59.502Z,5.47
2023-01-19T16:36:31.694Z,5.53
2023-01-19T16:39:00.641Z,6.05
2023-01-19T16:41:28.664Z,5.90
2023-01-19T16:43:58.403Z,5.53
2023-01-19T16:46:28.068Z,6.55
2023-01-19T16:49:00.456Z,6.63
2023-01-19T16:51:28.549Z,5.85
2023-01-19T16:53:56.491Z,6.60
2023-01-19T16:56:24.244Z,5.75
2023-01-19T16:58:54.778Z,5.50
2023-01-19T17:01:23.314Z,6.07
2023-01-19T17:03:51.383Z,6.80
2023-01-19T17:06:25.260Z,6.00
2023-01-19T17:08:54.327Z,5.70
2023-01-19T17:11:24.584Z,5.72
2023-01-19T17:13:56.376Z,12.52
2023-01-19T17:16:25.371Z,7.40
2023-01-19T17:18:56.945Z,6.45
2023-01-19T17:21:26.605Z,6.60
2023-01-19T17:23:55.773Z,6.80
2023-01-19T17:26:25.138Z,5.53
2023-01-19T17:28:53.144Z,6.65
2023-01-19T17:31:26.155Z,6.57
2023-01-19T17:33:53.941Z,6.47
2023-01-19T17:36:25.080Z,6.80
2023-01-19T17:38:56.104Z,8.48
2023-01-19T17:41:26.244Z,6.45
2023-01-19T17:43:54.491Z,7.30
2023-01-19T17:46:23.684Z,8.85
2023-01-19T17:48:54.330Z,9.98
2023-01-19T17:51:24.149Z,8.23
2023-01-19T17:53:56.298Z,8.10
2023-01-19T17:56:30.499Z,7.80
2023-01-19T17:58:59.304Z,8.30
2023-01-19T18:01:31.714Z,21.10
2023-01-19T18:04:00.840Z,7.95
2023-01-19T18:06:28.528Z,8.43
2023-01-19T18:08:58.365Z,11.90
2023-01-19T18:11:27.190Z,10.32
2023-01-19T18:13:55.098Z,10.63
2023-01-19T18:16:25.345Z,7.60
2023-01-19T18:18:54.351Z,9.80
2023-01-19T18:21:23.583Z,7.97
2023-01-19T18:24:02.315Z,9.30
2023-01-19T18:26:31.387Z,9.95
2023-01-19T18:28:59.473Z,10.05
2023-01-19T18:31:30.721Z,9.88
2023-01-19T18:33:58.486Z,9.48
2023-01-19T18:36:26.405Z,10.30
2023-01-19T18:38:54.292Z,10.50
2023-01-19T18:41:23.314Z,9.80
2023-01-19T18:43:51.920Z,10.05
2023-01-19T18:46:21.625Z,10.80
2023-01-19T18:48:49.337Z,10.40
2023-01-19T18:51:18.053Z,11.88
2023-01-19T18:53:46.347Z,11.07
2023-01-19T18:56:15.628Z,11.10
2023-01-19T18:58:45.557Z,10.07
2023-01-19T19:01:23.628Z,10.50
2023-01-19T19:03:52.021Z,10.93
2023-01-19T19:06:20.797Z,11.88
2023-01-19T19:08:50.033Z,11.80
2023-01-19T19:11:18.361Z,10.68
2023-01-19T19:13:51.631Z,11.43
2023-01-19T19:16:19.511Z,11.05
2023-01-19T19:18:49.679Z,11.27
2023-01-19T19:21:21.712Z,12.00
2023-01-19T19:23:51.911Z,12.20
2023-01-19T19:26:20.087Z,11.82
2023-01-19T19:28:49.304Z,13.88
2023-01-19T19:31:20.252Z,12.10
2023-01-19T19:33:50.576Z,13.18
2023-01-19T19:36:18.606Z,11.20
2023-01-19T19:38:47.451Z,12.10
2023-01-19T19:41:17.350Z,13.60
2023-01-19T19:43:45.249Z,13.75
2023-01-19T19:46:16.362Z,13.95
2023-01-19T19:48:44.086Z,14.23
2023-01-19T19:51:18.555Z,14.65
2023-01-19T19:53:49.560Z,14.70
2023-01-19T19:56:20.901Z,13.45
2023-01-19T19:58:48.960Z,17.80
2023-01-19T20:01:20.380Z,20.67
2023-01-19T20:03:49.760Z,14.40
2023-01-19T20:06:20.680Z,15.18
2023-01-19T20:08:50.435Z,14.25
2023-01-19T20:11:20.443Z,14.60
2023-01-19T20:13:48.557Z,13.63
2023-01-19T20:16:19.881Z,22.33
2023-01-19T20:18:51.304Z,16.35
2023-01-19T20:21:21.170Z,33.30
2023-01-19T20:23:50.712Z,14.38
2023-01-19T20:26:20.588Z,15.60
2023-01-19T20:28:48.805Z,13.90
2023-01-19T20:31:20.318Z,25.95
2023-01-19T20:33:49.618Z,15.45
2023-01-19T20:36:18.323Z,16.08
2023-01-19T20:38:46.671Z,13.18
2023-01-19T20:41:14.628Z,14.00
2023-01-19T20:43:42.414Z,15.50
2023-01-19T20:46:10.301Z,18.25
2023-01-19T20:48:39.399Z,16.17
2023-01-19T20:51:13.198Z,17.40
2023-01-19T20:53:42.316Z,17.55
2023-01-19T20:56:13.672Z,16.42
2023-01-19T20:58:42.475Z,16.38
2023-01-19T21:01:11.898Z,14.88
2023-01-19T21:03:41.115Z,16.80
2023-01-19T21:06:09.387Z,15.88
2023-01-19T21:08:37.524Z,13.23
2023-01-19T21:11:05.485Z,13.68
2023-01-19T21:13:33.648Z,13.68
2023-01-19T21:16:01.951Z,13.68
2023-01-19T21:18:30.101Z,12.95
2023-01-19T21:20:59.395Z,13.00
2023-01-19T21:23:27.411Z,12.50
2023-01-19T21:25:56.791Z,11.90
2023-01-19T21:28:24.586Z,12.63
2023-01-19T21:30:53.610Z,13.30
2023-01-19T21:33:22.245Z,13.18
2023-01-19T21:35:52.183Z,13.85
2023-01-19T21:38:22.205Z,12.13
2023-01-19T21:40:50.176Z,12.95
2023-01-19T21:43:19.836Z,14.98
2023-01-19T21:45:48.564Z,12.57
2023-01-19T21:48:16.974Z,12.88
2023-01-19T21:50:44.857Z,12.55
2023-01-19T21:53:12.855Z,13.40
2023-01-19T21:55:45.767Z,14.00
2023-01-19T21:58:13.465Z,14.80
2023-01-19T22:00:41.296Z,13.80
2023-01-19T22:03:09.071Z,11.63
2023-01-19T22:05:39.967Z,11.32
2023-01-19T22:08:07.693Z,10.82
2023-01-19T22:10:37.038Z,12.60
2023-01-19T22:13:06.557Z,9.70
2023-01-19T22:15:34.405Z,9.75
2023-01-19T22:18:02.139Z,9.50
2023-01-19T22:20:29.864Z,9.38
2023-01-19T22:22:57.946Z,10.50
2023-01-19T22:25:27.665Z,9.63
2023-01-19T22:27:55.553Z,9.25
2023-01-19T22:30:25.975Z,8.15
2023-01-19T22:32:54.089Z,7.18
2023-01-19T22:35:22.086Z,6.50
2023-01-19T22:37:49.750Z,5.80
2023-01-19T22:40:18.039Z,6.63
2023-01-19T22:42:47.320Z,7.85
2023-01-19T22:45:15.920Z,7.90
2023-01-19T22:47:45.189Z,9.65
2023-01-19T22:50:15.441Z,9.30
2023-01-19T22:52:43.270Z,9.40
2023-01-19T22:55:13.678Z,8.27
2023-01-19T22:57:41.525Z,8.48
2023-01-19T23:00:10.372Z,8.48
2023-01-19T23:02:39.408Z,7.70
2023-01-19T23:05:08.883Z,8.65
2023-01-19T23:07:36.804Z,8.07
2023-01-19T23:10:23.105Z,8.32
2023-01-19T23:12:50.811Z,7.93
2023-01-19T23:15:18.538Z,8.40
2023-01-19T23:17:48.841Z,8.88
2023-01-19T23:20:18.072Z,9.23
2023-01-19T23:22:45.871Z,7.07
2023-01-19T23:25:15.145Z,6.57
2023-01-19T23:27:42.987Z,7.60
2023-01-19T23:30:11.696Z,6.40
2023-01-19T23:32:39.408Z,6.68
2023-01-19T23:35:10.552Z,8.02
2023-01-19T23:37:39.661Z,7.75
2023-01-19T23:40:09.681Z,8.60
2023-01-19T23:42:37.386Z,8.35
2023-01-19T23:45:05.767Z,6.97
2023-01-19T23:47:35.411Z,7.05
2023-01-19T23:50:03.921Z,7.55
2023-01-19T23:52:32.219Z,6.75
2023-01-19T23:55:01.197Z,6.60
2023-01-19T23:57:28.895Z,6.60
2023-01-19T23:59:56.574Z,6.38
